Flight Track Log - Related Links

Times and Time Zones

All times are in EDT time to prevent confusion due to time zone crossing. See the UAL4678 flight status page for this flight to view local times or setup timezone preferences in your user account.

Time Position Orientation Groundspeed Altitude Reporting Facility
EDT Latitude Longitude Course Direction KTS MPH feet Rate Location/Type
Wed 03:01:41 PM 44.9000 -93.2833 115° Southeast 175 201 2,500  Level Minneapolis TRACON
Wed 03:02:12 PM 44.8908 -93.2997 232° Southwest 198 228 3,100 2,258 Climbing Minneapolis Center
Wed 03:03:14 PM 44.8544 -93.3725 235° Southwest 219 252 6,000 2,371 Climbing Minneapolis Center
Wed 03:04:16 PM 44.8053 -93.3064 136° Southeast 246 283 8,000 2,098 Climbing Minneapolis Center
Wed 03:05:17 PM 44.7553 -93.2133 127° Southeast 266 306 10,300 1,756 Climbing Minneapolis Center
Wed 03:06:00 PM 44.3784 -92.5413 120° Southeast  Level FlightAware Approximate
Wed 03:06:19 PM 44.7003 -93.1119 127° Southeast 292 336 11,600  Level Minneapolis Center
Wed 03:07:00 PM 44.3222 -92.3998 115° Southeast  Level FlightAware Approximate
Wed 03:07:21 PM 44.6386 -92.9969 127° Southeast 345 397 13,000  Level Minneapolis Center
Wed 03:08:23 PM 44.5756 -92.8797 127° Southeast 370 426 14,800 1,561 Climbing Minneapolis Center
Wed 03:09:24 PM 44.5122 -92.7628 127° Southeast 372 428 16,200 1,415 Climbing Minneapolis Center
Wed 03:10:26 PM 44.4467 -92.6433 128° Southeast 381 438 17,700 1,355 Climbing Minneapolis Center
Wed 03:11:28 PM 44.3817 -92.5244 127° Southeast 385 443 19,000 1,500 Climbing Minneapolis Center
Wed 03:12:30 PM 44.3083 -92.3756 125° Southeast 386 444 20,800 1,548 Climbing Minneapolis Center
Wed 03:13:32 PM 44.2531 -92.2450 121° Southeast 390 449 22,200 1,415 Climbing Minneapolis Center
Wed 03:14:33 PM 44.1969 -92.1175 122° Southeast 389 448 23,700 1,463 Climbing Minneapolis Center
Wed 03:15:35 PM 44.1428 -91.9897 121° Southeast 388 447 25,200 1,452 Climbing Minneapolis Center
Wed 03:16:37 PM 44.0883 -91.8661 121° Southeast 381 438 26,700 1,403 Climbing Minneapolis Center
Wed 03:17:39 PM 44.0358 -91.7472 122° Southeast 369 425 28,100 1,452 Climbing Minneapolis Center
Wed 03:18:41 PM 43.9806 -91.6197 121° Southeast 359 413 29,700 1,512 Climbing Minneapolis Center
Wed 03:19:42 PM 43.9314 -91.5108 122° Southeast 342 394 31,200 1,415 Climbing Minneapolis Center
Wed 03:20:44 PM 43.8789 -91.4094 126° Southeast 332 382 32,600 1,355 Climbing Minneapolis Center
Wed 03:21:46 PM 43.8244 -91.3228 131° Southeast 309 356 34,000 1,171 Climbing Minneapolis Center
Wed 03:22:47 PM 43.7622 -91.2200 130° Southeast 298 343 35,000 488 Climbing Minneapolis Center
Wed 03:23:49 PM 43.7083 -91.1317 130° Southeast 298 343 35,000  Level Minneapolis Center
Wed 03:24:51 PM 43.6497 -91.0383 131° Southeast 304 350 35,000  Level Minneapolis Center
Wed 03:25:53 PM 43.5878 -90.9381 130° Southeast 322 371 35,000  Level Minneapolis Center
Wed 03:26:42 PM 43.5356 -90.8569 132° Southeast 354 407 35,000  Level Chicago Center
Wed 03:27:44 PM 43.4700 -90.7489 130° Southeast 365 420 35,000  Level Chicago Center
Wed 03:28:46 PM 43.4011 -90.6381 131° Southeast 368 423 35,000  Level Chicago Center
Wed 03:29:49 PM 43.3214 -90.5111 131° Southeast 371 427 35,000  Level Chicago Center
Wed 03:30:51 PM 43.2536 -90.4019 130° Southeast 373 429 35,000  Level Chicago Center
Wed 03:31:53 PM 43.1853 -90.2936 131° Southeast 373 429 35,000  Level Chicago Center
Wed 03:32:55 PM 43.1172 -90.1856 131° Southeast 373 429 35,000  Level Chicago Center
Wed 03:33:57 PM 43.0486 -90.0769 131° Southeast 375 432 35,000  Level Chicago Center
Wed 03:34:59 PM 42.9717 -89.9403 128° Southeast 377 434 35,000  Level Chicago Center
Wed 03:36:01 PM 42.9086 -89.8164 125° Southeast 387 445 35,000 387 Level Chicago Center
Wed 03:37:03 PM 42.8506 -89.6956 123° Southeast 386 444 35,800 774 Climbing Chicago Center
Wed 03:38:05 PM 42.7936 -89.5789 124° Southeast 377 434 36,600 581 Climbing Chicago Center
Wed 03:39:07 PM 42.7533 -89.4450 112° Southeast 397 457 37,000 192 Climbing Chicago Center
Wed 03:40:10 PM 42.7217 -89.2597 103° East 417 480 37,000  Level Chicago Center
Wed 03:41:12 PM 42.6947 -89.1019 103° East 424 488 37,000  Level Chicago Center
Wed 03:42:14 PM 42.6672 -88.9408 103° East 434 499 37,000  Level Chicago Center
Wed 03:43:16 PM 42.6378 -88.7775 104° East 441 507 37,000  Level Chicago Center
Wed 03:44:18 PM 42.6089 -88.6142 103° East 443 510 37,000  Level Chicago Center
Wed 03:45:20 PM 42.5744 -88.4169 103° East 448 516 37,000  Level Chicago Center
Wed 03:46:22 PM 42.5458 -88.2539 103° East 448 516 37,000  Level Chicago Center
Wed 03:47:25 PM 42.5169 -88.0944 104° East 444 511 37,000  Level Chicago Center
Wed 03:48:27 PM 42.4872 -87.9347 104° East 443 510 37,000  Level Chicago Center
Wed 03:49:29 PM 42.4569 -87.7742 104° East 442 509 37,000  Level Chicago Center
Wed 03:50:31 PM 42.4228 -87.5944 104° East 442 509 37,000  Level Chicago Center
Wed 03:51:33 PM 42.3922 -87.4306 104° East 444 511 37,000  Level Chicago Center
Wed 03:52:35 PM 42.3611 -87.2686 105° East 444 511 37,000  Level Chicago Center
Wed 03:53:37 PM 42.3300 -87.1053 104° East 446 513 37,000  Level Chicago Center
Wed 03:54:40 PM 42.2908 -86.9067 105° East 453 521 37,000  Level Chicago Center
Wed 03:55:42 PM 42.2578 -86.7447 105° East 451 519 37,000  Level Chicago Center
Wed 03:56:44 PM 42.2292 -86.5942 104° East 448 516 37,000  Level Chicago Center
Wed 03:57:46 PM 42.1972 -86.4300 105° East 450 518 37,000  Level Chicago Center
Wed 03:58:48 PM 42.1569 -86.2344 105° East 452 520 37,000  Level Chicago Center
Wed 03:59:50 PM 42.1239 -86.0711 105° East 452 520 37,000  Level Chicago Center
Wed 04:00:52 PM 42.0928 -85.9194 105° East 453 521 37,000  Level Chicago Center
Wed 04:01:55 PM 42.0589 -85.7558 106° East 457 526 37,000  Level Chicago Center
Wed 04:02:57 PM 42.0186 -85.5611 105° East 456 525 37,000  Level Chicago Center
Wed 04:03:59 PM 41.9894 -85.4122 105° East 455 524 37,000  Level Chicago Center
Wed 04:05:01 PM 41.9553 -85.2472 106° East 455 524 37,000  Level Chicago Center
Wed 04:06:03 PM 41.9514 -85.0325 91° East 475 547 37,000  Level Chicago Center
Wed 04:07:05 PM 41.9500 -84.8533 91° East 482 555 37,000  Level Chicago Center
Wed 04:08:07 PM 41.9492 -84.6761 90° East 478 550 37,000  Level Chicago Center
Wed 04:08:57 PM 41.9467 -84.5350 91° East 474 545 37,000  Level Cleveland Center
Wed 04:09:59 PM 41.9461 -84.3581 90° East 475 547 37,000  Level Cleveland Center
Wed 04:11:01 PM 41.9447 -84.1800 91° East 474 545 37,000  Level Cleveland Center
Wed 04:12:03 PM 41.9414 -84.0033 91° East 475 547 37,000  Level Cleveland Center
Wed 04:13:05 PM 41.9386 -83.7928 91° East 475 547 37,000  Level Cleveland Center
Wed 04:14:07 PM 41.9358 -83.6181 91° East 475 547 37,000  Level Cleveland Center
Wed 04:15:09 PM 41.9336 -83.4514 91° East 474 545 37,000  Level Cleveland Center
Wed 04:16:12 PM 41.9325 -83.2431 90° East 474 545 37,000  Level Cleveland Center
Wed 04:17:14 PM 41.9319 -83.0600 90° East 474 545 37,000  Level Cleveland Center
Wed 04:18:16 PM 41.9311 -82.8847 90° East 474 545 37,000  Level Cleveland Center
Wed 04:19:18 PM 41.9286 -82.7097 91° East 474 545 37,000  Level Cleveland Center
Wed 04:20:20 PM 41.9269 -82.5336 91° East 474 545 37,000  Level Cleveland Center
Wed 04:21:22 PM 41.9261 -82.3583 90° East 473 544 37,000  Level Cleveland Center
Wed 04:22:25 PM 41.9225 -82.1456 91° East 474 545 37,000  Level Cleveland Center
Wed 04:23:26 PM 41.9192 -81.9619 91° East 474 545 37,000  Level Cleveland Center
Wed 04:24:29 PM 41.9131 -81.7825 93° East 475 547 37,000  Level Cleveland Center
Wed 04:25:31 PM 41.8975 -81.6047 97° East 475 547 37,000  Level Cleveland Center
Wed 04:26:33 PM 41.8814 -81.4253 97° East 475 547 37,000  Level Cleveland Center
Wed 04:27:35 PM 41.8647 -81.2461 97° East 476 548 37,000  Level Cleveland Center
Wed 04:28:37 PM 41.8478 -81.0664 97° East 477 549 37,000  Level Cleveland Center
Wed 04:29:39 PM 41.8317 -80.8894 97° East 476 548 37,000  Level Cleveland Center
Wed 04:30:41 PM 41.8136 -80.7094 98° East 478 550 37,000  Level Cleveland Center
Wed 04:31:43 PM 41.7967 -80.5300 97° East 480 552 37,000  Level Cleveland Center
Wed 04:32:46 PM 41.7758 -80.3236 98° East 477 549 37,000  Level Cleveland Center
Wed 04:33:48 PM 41.7583 -80.1458 97° East 476 548 37,000  Level Cleveland Center
Wed 04:34:50 PM 41.7383 -79.9675 98° East 478 550 37,000  Level Cleveland Center
Wed 04:35:52 PM 41.7206 -79.7900 98° East 478 550 37,000  Level Cleveland Center
Wed 04:36:54 PM 41.7003 -79.6014 98° East 477 549 37,000  Level Cleveland Center
Wed 04:37:56 PM 41.6814 -79.4269 98° East 476 548 37,000  Level Cleveland Center
Wed 04:38:58 PM 41.6594 -79.2322 99° East 477 549 37,000  Level Cleveland Center
Wed 04:40:00 PM 41.6431 -79.0794 98° East 476 548 37,000  Level Cleveland Center
Wed 04:41:03 PM 41.6186 -78.8703 99° East 476 548 37,000  Level Cleveland Center
Wed 04:42:05 PM 41.5997 -78.6983 98° East 475 547 37,000  Level Cleveland Center
Wed 04:43:07 PM 41.5861 -78.5317 96° East 460 529 37,000  Level Cleveland Center
Wed 04:44:09 PM 41.6347 -78.3792 67° East 455 524 37,000 -97 Level Cleveland Center
Wed 04:45:11 PM 41.6981 -78.2386 59° Northeast 453 521 36,800 -581 Descending Cleveland Center
Wed 04:46:13 PM 41.6694 -78.0797 104° East 452 520 35,800 -1,065 Descending Cleveland Center
Wed 04:47:15 PM 41.6272 -77.8972 107° East 436 502 34,600 -1,008 Descending Cleveland Center
Wed 04:48:18 PM 41.5881 -77.7431 109° East 434 499 33,700 -912 Descending Cleveland Center
Wed 04:49:20 PM 41.5492 -77.5850 108° East 445 512 32,700 -968 Descending Cleveland Center
Wed 04:50:22 PM 41.5081 -77.4314 110° East 445 512 31,700 -823 Descending Cleveland Center
Wed 04:51:24 PM 41.4689 -77.2758 109° East 444 511 31,000 -326 Descending Cleveland Center
Wed 04:52:31 PM 41.4217 -77.0956 109° East 443 510 31,000  Level New York Center
Wed 04:53:31 PM 41.3800 -76.9394 110° East 443 510 31,000 -706 Level New York Center
Wed 04:54:30 PM 41.3378 -76.7836 110° East 443 510 29,600 -2,033 Descending New York Center
Wed 04:55:32 PM 41.2961 -76.6197 109° East 443 510 26,900 -2,700 Descending New York Center
Wed 04:56:30 PM 41.2517 -76.4642 111° Southeast 448 516 24,200 -2,622 Descending New York Center
Wed 04:57:31 PM 41.2089 -76.3117 110° East 448 516 21,700 -2,607 Descending New York Center
Wed 04:58:32 PM 41.1683 -76.1483 108° East 430 495 18,900 -1,866 Descending New York Center
Wed 04:59:30 PM 41.1344 -76.0244 110° East 401 461 18,000 -1,563 Descending New York Center
Wed 05:00:31 PM 41.0986 -75.8894 109° East 389 448 15,800 -1,681 Descending New York Center
Wed 05:02:32 PM 41.0225 -75.6169 110° East 377 434 12,900 -1,039 Descending New York Center
Wed 05:03:30 PM 40.9917 -75.5075 110° East 372 428 12,700 -1,311 Descending New York Center
Wed 05:04:31 PM 40.9533 -75.3703 110° East 367 422 10,300 -1,561 Descending New York Center
Wed 05:05:33 PM 40.9278 -75.2725 109° East 331 381 9,500 -1,289 Descending New York Center
Wed 05:06:32 PM 40.8983 -75.1717 111° Southeast 301 346 7,700 -1,282 Descending New York Center
Wed 05:07:30 PM 40.8686 -75.0708 111° Southeast 277 319 7,000 -356 Descending New York Center
Wed 05:08:30 PM 40.8594 -74.9853 98° East 249 287 7,000  Level New York Center
Wed 05:09:31 PM 40.8894 -74.9019 65° Northeast 230 265 7,000  Level New York Center
Wed 05:10:32 PM 40.9172 -74.8214 65° Northeast 237 273 7,000  Level New York Center
Wed 05:11:30 PM 40.8786 -74.7944 152° Southeast 140 161 7,000 -200 Level New York Center
Wed 05:12:32 PM 40.8214 -74.8158 196° South 177 204 6,600 -492 Descending New York Center
Wed 05:13:32 PM 40.7719 -74.7992 166° South 193 222 6,000 -305 Descending New York Center
Wed 05:14:30 PM 40.7386 -74.7422 128° Southeast 187 215 6,000  Level New York Center
Wed 05:15:31 PM 40.7308 -74.6625 97° East 193 222 6,000  Level New York Center
Wed 05:16:30 PM 40.7417 -74.5864 79° East 199 229 6,000  Level New York Center
Wed 05:17:30 PM 40.8025 -74.5706 11° North 171 197 6,000  Level New York Center
Wed 05:18:31 PM 40.8592 -74.5600 North 203 234 6,000  Level New York Center
Wed 05:19:33 PM 40.9283 -74.5503 North 225 259 6,000  Level New York Center
Wed 05:21:55 PM 41.0667 -74.5167 10° North 207 238 6,000  Level New York TRACON
Wed 05:22:49 PM 41.1167 -74.4833 27° Northeast 211 243 6,000  Level New York TRACON
Wed 05:23:55 PM 41.1500 -74.4167 56° Northeast 208 239 6,000 -333 Level New York TRACON
Wed 05:24:55 PM 41.1500 -74.3500 90° East 198 228 5,300 -500 Descending New York TRACON
Wed 05:25:55 PM 41.1333 -74.2833 108° East 191 220 5,000 -150 Descending New York TRACON
Wed 05:26:55 PM 41.1000 -74.2333 131° Southeast 180 207 5,000  Level New York TRACON
Wed 05:27:55 PM 41.0500 -74.2000 153° Southeast 173 199 5,000 -209 Level New York TRACON
Wed 05:28:50 PM 41.0167 -74.1667 143° Southeast 181 208 4,600 -522 Descending New York TRACON
Wed 05:29:50 PM 40.9833 -74.1333 143° Southeast 169 194 4,000 -550 Descending New York TRACON
Wed 05:30:50 PM 40.9333 -74.1167 166° South 171 197 3,500 -504 Descending New York TRACON
Wed 05:31:49 PM 40.9000 -74.0833 143° Southeast 166 191 3,000 -250 Descending New York TRACON
Wed 05:32:50 PM 40.8500 -74.0667 166° South 164 189 3,000 -300 Level New York TRACON
Wed 05:33:49 PM 40.8000 -74.1000 207° Southwest 163 188 2,400 -756 Descending New York TRACON
Wed 05:34:49 PM 40.7667 -74.1167 201° Southwest 178 205 1,500 -843 Descending New York TRACON
Wed 05:35:50 PM 40.7333 -74.1500 217° Southwest 140 161 700 -787 Descending New York TRACON

Login

Don't have an account? Register now (free) for customized features, flight alerts, and more!